
<gpx xmlns="http://www.topografix.com/GPX/1/1" xmlns:gpxx="http://www.garmin.com/xmlschemas/GpxExtensions/v3" xmlns:xsi="http://www.w3.org/2001/XMLSchema-instance" version="1.1" creator="Adze - http://kobotsw.com/apps/adze" xsi:schemaLocation="http://www.topografix.com/GPX/1/1 http://www.topografix.com/GPX/1/1/gpx.xsd http://www.garmin.com/xmlschemas/GpxExtensions/v3 http://www.garmin.com/xmlschemas/GpxExtensionsv3.xsd">
    <metadata>
        <name>Untitled Document</name>
        <link href="http://www.garmin.com"></link>
        <time>2018-02-26T03:52:14.149Z</time>
    </metadata>
    <wpt lon="101.357937" lat="14.543573">
        <time>2015-11-29T08:42:38Z</time>
        <name>DNA Resort</name>
        <cmt>PAK CHONG</cmt>
        <desc>PAK CHONG</desc>
        <sym>Lodging</sym>
        <extensions>
            <gpxx:WaypointExtension xmlns:gpxx="http://www.garmin.com/xmlschemas/GpxExtensions/v3">
                <gpxx:DisplayMode>SymbolAndName</gpxx:DisplayMode>
            </gpxx:WaypointExtension>
        </extensions>
    </wpt>
    <wpt lon="101.369371" lat="14.520740">
        <ele>381.000000</ele>
        <time>2015-11-29T03:49:56Z</time>
        <name>Water Sunday</name>
        <sym>Drinking Water</sym>
        <extensions>
            <gpxx:WaypointExtension xmlns:gpxx="http://www.garmin.com/xmlschemas/GpxExtensions/v3">
                <gpxx:DisplayMode>SymbolAndName</gpxx:DisplayMode>
            </gpxx:WaypointExtension>
        </extensions>
    </wpt>
    <trk>
        <name>Sunday</name>
        <extensions>
            <gpxx:TrackExtension xmlns:gpxx="http://www.garmin.com/xmlschemas/GpxExtensions/v3">
                <gpxx:DisplayColor>Green</gpxx:DisplayColor>
            </gpxx:TrackExtension>
        </extensions>
        <trkseg>
            <trkpt lon="101.356837" lat="14.542782">
                <ele>390.430000</ele>
                <time>2015-11-29T02:59:24Z</time>
            </trkpt>
            <trkpt lon="101.356808" lat="14.542402">
                <ele>388.030000</ele>
                <time>2015-11-29T02:59:40Z</time>
            </trkpt>
            <trkpt lon="101.357823" lat="14.541801">
                <ele>388.510000</ele>
                <time>2015-11-29T03:00:07Z</time>
            </trkpt>
            <trkpt lon="101.358220" lat="14.541366">
                <ele>387.550000</ele>
                <time>2015-11-29T03:00:20Z</time>
            </trkpt>
            <trkpt lon="101.358205" lat="14.541244">
                <ele>386.110000</ele>
                <time>2015-11-29T03:00:55Z</time>
            </trkpt>
            <trkpt lon="101.357154" lat="14.541368">
                <ele>384.180000</ele>
                <time>2015-11-29T03:01:19Z</time>
            </trkpt>
            <trkpt lon="101.353791" lat="14.541195">
                <ele>388.030000</ele>
                <time>2015-11-29T03:02:29Z</time>
            </trkpt>
            <trkpt lon="101.352717" lat="14.541296">
                <ele>388.990000</ele>
                <time>2015-11-29T03:02:49Z</time>
            </trkpt>
            <trkpt lon="101.351562" lat="14.541405">
                <ele>388.510000</ele>
                <time>2015-11-29T03:03:13Z</time>
            </trkpt>
            <trkpt lon="101.345388" lat="14.540088">
                <ele>385.630000</ele>
                <time>2015-11-29T03:05:01Z</time>
            </trkpt>
            <trkpt lon="101.343720" lat="14.539949">
                <ele>392.840000</ele>
                <time>2015-11-29T03:05:35Z</time>
            </trkpt>
            <trkpt lon="101.342233" lat="14.540166">
                <ele>394.760000</ele>
                <time>2015-11-29T03:06:10Z</time>
            </trkpt>
            <trkpt lon="101.340654" lat="14.540944">
                <ele>400.050000</ele>
                <time>2015-11-29T03:06:58Z</time>
            </trkpt>
            <trkpt lon="101.340625" lat="14.540930">
                <ele>400.050000</ele>
                <time>2015-11-29T03:06:59Z</time>
            </trkpt>
            <trkpt lon="101.340169" lat="14.540058">
                <ele>398.120000</ele>
                <time>2015-11-29T03:07:21Z</time>
            </trkpt>
            <trkpt lon="101.340200" lat="14.539653">
                <ele>398.600000</ele>
                <time>2015-11-29T03:07:31Z</time>
            </trkpt>
            <trkpt lon="101.340086" lat="14.539376">
                <ele>397.160000</ele>
                <time>2015-11-29T03:07:42Z</time>
            </trkpt>
            <trkpt lon="101.339587" lat="14.538632">
                <ele>400.050000</ele>
                <time>2015-11-29T03:08:10Z</time>
            </trkpt>
            <trkpt lon="101.339114" lat="14.537584">
                <ele>407.260000</ele>
                <time>2015-11-29T03:08:42Z</time>
            </trkpt>
            <trkpt lon="101.338976" lat="14.537283">
                <ele>408.220000</ele>
                <time>2015-11-29T03:08:56Z</time>
            </trkpt>
            <trkpt lon="101.338915" lat="14.537195">
                <ele>408.220000</ele>
                <time>2015-11-29T03:09:00Z</time>
            </trkpt>
            <trkpt lon="101.339013" lat="14.536770">
                <ele>410.620000</ele>
                <time>2015-11-29T03:09:13Z</time>
            </trkpt>
            <trkpt lon="101.341273" lat="14.535977">
                <ele>410.620000</ele>
                <time>2015-11-29T03:10:21Z</time>
            </trkpt>
            <trkpt lon="101.341872" lat="14.535933">
                <ele>409.180000</ele>
                <time>2015-11-29T03:10:39Z</time>
            </trkpt>
            <trkpt lon="101.342427" lat="14.536130">
                <ele>410.140000</ele>
                <time>2015-11-29T03:10:53Z</time>
            </trkpt>
            <trkpt lon="101.342722" lat="14.536152">
                <ele>409.180000</ele>
                <time>2015-11-29T03:11:00Z</time>
            </trkpt>
            <trkpt lon="101.343321" lat="14.535873">
                <ele>407.740000</ele>
                <time>2015-11-29T03:11:26Z</time>
            </trkpt>
            <trkpt lon="101.344551" lat="14.536124">
                <ele>417.350000</ele>
                <time>2015-11-29T03:12:07Z</time>
            </trkpt>
            <trkpt lon="101.346013" lat="14.535886">
                <ele>396.680000</ele>
                <time>2015-11-29T03:12:46Z</time>
            </trkpt>
            <trkpt lon="101.347962" lat="14.536354">
                <ele>400.050000</ele>
                <time>2015-11-29T03:13:38Z</time>
            </trkpt>
            <trkpt lon="101.348935" lat="14.536567">
                <ele>399.080000</ele>
                <time>2015-11-29T03:14:00Z</time>
            </trkpt>
            <trkpt lon="101.350201" lat="14.536423">
                <ele>403.410000</ele>
                <time>2015-11-29T03:14:30Z</time>
            </trkpt>
            <trkpt lon="101.351363" lat="14.536437">
                <ele>396.680000</ele>
                <time>2015-11-29T03:15:07Z</time>
            </trkpt>
            <trkpt lon="101.352171" lat="14.536419">
                <ele>388.510000</ele>
                <time>2015-11-29T03:15:33Z</time>
            </trkpt>
            <trkpt lon="101.352545" lat="14.536397">
                <ele>380.820000</ele>
                <time>2015-11-29T03:15:44Z</time>
            </trkpt>
            <trkpt lon="101.353269" lat="14.536444">
                <ele>380.340000</ele>
                <time>2015-11-29T03:16:05Z</time>
            </trkpt>
            <trkpt lon="101.353990" lat="14.536332">
                <ele>387.070000</ele>
                <time>2015-11-29T03:16:49Z</time>
            </trkpt>
            <trkpt lon="101.355641" lat="14.535214">
                <ele>392.840000</ele>
                <time>2015-11-29T03:17:44Z</time>
            </trkpt>
            <trkpt lon="101.356346" lat="14.534536">
                <ele>391.870000</ele>
                <time>2015-11-29T03:18:08Z</time>
            </trkpt>
            <trkpt lon="101.357425" lat="14.533197">
                <ele>389.950000</ele>
                <time>2015-11-29T03:18:48Z</time>
            </trkpt>
            <trkpt lon="101.358982" lat="14.530731">
                <ele>395.240000</ele>
                <time>2015-11-29T03:20:07Z</time>
            </trkpt>
            <trkpt lon="101.359550" lat="14.530039">
                <ele>398.120000</ele>
                <time>2015-11-29T03:20:34Z</time>
            </trkpt>
            <trkpt lon="101.359872" lat="14.529695">
                <ele>395.240000</ele>
                <time>2015-11-29T03:20:59Z</time>
            </trkpt>
            <trkpt lon="101.359744" lat="14.528085">
                <ele>389.470000</ele>
                <time>2015-11-29T03:22:44Z</time>
            </trkpt>
            <trkpt lon="101.360944" lat="14.527533">
                <ele>393.320000</ele>
                <time>2015-11-29T03:23:23Z</time>
            </trkpt>
            <trkpt lon="101.360846" lat="14.526842">
                <ele>395.720000</ele>
                <time>2015-11-29T03:23:47Z</time>
            </trkpt>
            <trkpt lon="101.360578" lat="14.526246">
                <ele>398.120000</ele>
                <time>2015-11-29T03:24:07Z</time>
            </trkpt>
            <trkpt lon="101.361648" lat="14.526275">
                <ele>399.080000</ele>
                <time>2015-11-29T03:24:36Z</time>
            </trkpt>
            <trkpt lon="101.362570" lat="14.526226">
                <ele>387.550000</ele>
                <time>2015-11-29T03:24:59Z</time>
            </trkpt>
            <trkpt lon="101.362683" lat="14.525915">
                <ele>391.390000</ele>
                <time>2015-11-29T03:26:17Z</time>
            </trkpt>
            <trkpt lon="101.362761" lat="14.525853">
                <ele>390.910000</ele>
                <time>2015-11-29T03:26:28Z</time>
            </trkpt>
            <trkpt lon="101.362831" lat="14.525478">
                <ele>393.800000</ele>
                <time>2015-11-29T03:26:50Z</time>
            </trkpt>
            <trkpt lon="101.362824" lat="14.524239">
                <ele>390.910000</ele>
                <time>2015-11-29T03:28:12Z</time>
            </trkpt>
            <trkpt lon="101.363016" lat="14.523999">
                <ele>390.430000</ele>
                <time>2015-11-29T03:28:23Z</time>
            </trkpt>
            <trkpt lon="101.364015" lat="14.523836">
                <ele>391.390000</ele>
                <time>2015-11-29T03:28:55Z</time>
            </trkpt>
            <trkpt lon="101.364717" lat="14.524069">
                <ele>387.550000</ele>
                <time>2015-11-29T03:30:30Z</time>
            </trkpt>
            <trkpt lon="101.364912" lat="14.523967">
                <ele>388.510000</ele>
                <time>2015-11-29T03:30:41Z</time>
            </trkpt>
            <trkpt lon="101.363951" lat="14.521240">
                <ele>400.050000</ele>
                <time>2015-11-29T03:33:26Z</time>
            </trkpt>
            <trkpt lon="101.364676" lat="14.519662">
                <ele>397.160000</ele>
                <time>2015-11-29T03:34:36Z</time>
            </trkpt>
            <trkpt lon="101.365119" lat="14.519256">
                <ele>402.450000</ele>
                <time>2015-11-29T03:36:39Z</time>
            </trkpt>
            <trkpt lon="101.365570" lat="14.518961">
                <ele>401.490000</ele>
                <time>2015-11-29T03:37:02Z</time>
            </trkpt>
            <trkpt lon="101.366167" lat="14.518507">
                <ele>393.320000</ele>
                <time>2015-11-29T03:37:28Z</time>
            </trkpt>
            <trkpt lon="101.366515" lat="14.518136">
                <ele>395.720000</ele>
                <time>2015-11-29T03:37:46Z</time>
            </trkpt>
            <trkpt lon="101.368165" lat="14.515179">
                <ele>402.450000</ele>
                <time>2015-11-29T03:42:57Z</time>
            </trkpt>
            <trkpt lon="101.368197" lat="14.515064">
                <ele>401.970000</ele>
                <time>2015-11-29T03:43:09Z</time>
            </trkpt>
            <trkpt lon="101.368242" lat="14.515045">
                <ele>403.890000</ele>
                <time>2015-11-29T03:43:23Z</time>
            </trkpt>
            <trkpt lon="101.368663" lat="14.515320">
                <ele>403.410000</ele>
                <time>2015-11-29T03:44:20Z</time>
            </trkpt>
            <trkpt lon="101.369062" lat="14.515787">
                <ele>402.930000</ele>
                <time>2015-11-29T03:45:21Z</time>
            </trkpt>
            <trkpt lon="101.369177" lat="14.515815">
                <ele>405.810000</ele>
                <time>2015-11-29T03:45:35Z</time>
            </trkpt>
            <trkpt lon="101.369509" lat="14.515988">
                <ele>407.740000</ele>
                <time>2015-11-29T03:45:58Z</time>
            </trkpt>
            <trkpt lon="101.369713" lat="14.516138">
                <ele>409.180000</ele>
                <time>2015-11-29T03:46:11Z</time>
            </trkpt>
            <trkpt lon="101.370082" lat="14.516405">
                <ele>405.810000</ele>
                <time>2015-11-29T03:46:36Z</time>
            </trkpt>
            <trkpt lon="101.370262" lat="14.516482">
                <ele>401.970000</ele>
                <time>2015-11-29T03:46:51Z</time>
            </trkpt>
            <trkpt lon="101.370309" lat="14.516611">
                <ele>400.050000</ele>
                <time>2015-11-29T03:47:24Z</time>
            </trkpt>
            <trkpt lon="101.370326" lat="14.516710">
                <ele>394.280000</ele>
                <time>2015-11-29T03:47:45Z</time>
            </trkpt>
            <trkpt lon="101.370423" lat="14.516768">
                <ele>392.360000</ele>
                <time>2015-11-29T03:47:57Z</time>
            </trkpt>
            <trkpt lon="101.370479" lat="14.517069">
                <ele>387.550000</ele>
                <time>2015-11-29T03:48:25Z</time>
            </trkpt>
            <trkpt lon="101.370632" lat="14.517202">
                <ele>385.630000</ele>
                <time>2015-11-29T03:48:33Z</time>
            </trkpt>
            <trkpt lon="101.370040" lat="14.518510">
                <ele>384.660000</ele>
                <time>2015-11-29T03:49:06Z</time>
            </trkpt>
            <trkpt lon="101.369355" lat="14.520778">
                <ele>402.930000</ele>
                <time>2015-11-29T03:58:29Z</time>
            </trkpt>
            <trkpt lon="101.369340" lat="14.520796">
                <ele>400.050000</ele>
                <time>2015-11-29T03:59:54Z</time>
            </trkpt>
            <trkpt lon="101.370199" lat="14.518405">
                <ele>384.180000</ele>
                <time>2015-11-29T04:02:31Z</time>
            </trkpt>
            <trkpt lon="101.372341" lat="14.519072">
                <ele>378.420000</ele>
                <time>2015-11-29T04:03:21Z</time>
            </trkpt>
            <trkpt lon="101.373657" lat="14.518843">
                <ele>374.090000</ele>
                <time>2015-11-29T04:03:45Z</time>
            </trkpt>
            <trkpt lon="101.374662" lat="14.518018">
                <ele>376.970000</ele>
                <time>2015-11-29T04:04:12Z</time>
            </trkpt>
            <trkpt lon="101.375692" lat="14.517373">
                <ele>376.970000</ele>
                <time>2015-11-29T04:04:37Z</time>
            </trkpt>
            <trkpt lon="101.376038" lat="14.516724">
                <ele>376.490000</ele>
                <time>2015-11-29T04:04:54Z</time>
            </trkpt>
            <trkpt lon="101.376964" lat="14.516399">
                <ele>376.490000</ele>
                <time>2015-11-29T04:05:17Z</time>
            </trkpt>
            <trkpt lon="101.377274" lat="14.516829">
                <ele>374.090000</ele>
                <time>2015-11-29T04:06:35Z</time>
            </trkpt>
            <trkpt lon="101.377332" lat="14.517199">
                <ele>373.610000</ele>
                <time>2015-11-29T04:07:16Z</time>
            </trkpt>
            <trkpt lon="101.377222" lat="14.517285">
                <ele>374.570000</ele>
                <time>2015-11-29T04:07:50Z</time>
            </trkpt>
            <trkpt lon="101.377253" lat="14.517039">
                <ele>377.450000</ele>
                <time>2015-11-29T04:09:48Z</time>
            </trkpt>
            <trkpt lon="101.377188" lat="14.516853">
                <ele>376.010000</ele>
                <time>2015-11-29T04:10:42Z</time>
            </trkpt>
            <trkpt lon="101.376684" lat="14.516922">
                <ele>378.900000</ele>
                <time>2015-11-29T04:11:07Z</time>
            </trkpt>
            <trkpt lon="101.376479" lat="14.517097">
                <ele>379.380000</ele>
                <time>2015-11-29T04:11:19Z</time>
            </trkpt>
            <trkpt lon="101.376362" lat="14.517294">
                <ele>376.970000</ele>
                <time>2015-11-29T04:11:30Z</time>
            </trkpt>
            <trkpt lon="101.376586" lat="14.518564">
                <ele>372.170000</ele>
                <time>2015-11-29T04:12:21Z</time>
            </trkpt>
            <trkpt lon="101.376307" lat="14.519539">
                <ele>371.690000</ele>
                <time>2015-11-29T04:12:59Z</time>
            </trkpt>
            <trkpt lon="101.376155" lat="14.519676">
                <ele>369.760000</ele>
                <time>2015-11-29T04:13:10Z</time>
            </trkpt>
            <trkpt lon="101.376591" lat="14.520311">
                <ele>372.650000</ele>
                <time>2015-11-29T04:13:36Z</time>
            </trkpt>
            <trkpt lon="101.377442" lat="14.520580">
                <ele>375.050000</ele>
                <time>2015-11-29T04:14:05Z</time>
            </trkpt>
            <trkpt lon="101.377977" lat="14.521284">
                <ele>370.240000</ele>
                <time>2015-11-29T04:14:30Z</time>
            </trkpt>
            <trkpt lon="101.378159" lat="14.521256">
                <ele>370.730000</ele>
                <time>2015-11-29T04:14:36Z</time>
            </trkpt>
            <trkpt lon="101.379765" lat="14.520025">
                <ele>381.300000</ele>
                <time>2015-11-29T04:15:38Z</time>
            </trkpt>
            <trkpt lon="101.381092" lat="14.519398">
                <ele>386.590000</ele>
                <time>2015-11-29T04:16:17Z</time>
            </trkpt>
            <trkpt lon="101.381206" lat="14.519294">
                <ele>386.110000</ele>
                <time>2015-11-29T04:16:21Z</time>
            </trkpt>
            <trkpt lon="101.380553" lat="14.517110">
                <ele>377.450000</ele>
                <time>2015-11-29T04:17:16Z</time>
            </trkpt>
            <trkpt lon="101.380720" lat="14.516879">
                <ele>376.490000</ele>
                <time>2015-11-29T04:17:23Z</time>
            </trkpt>
            <trkpt lon="101.383108" lat="14.516314">
                <ele>379.380000</ele>
                <time>2015-11-29T04:18:24Z</time>
            </trkpt>
            <trkpt lon="101.383695" lat="14.516395">
                <ele>379.860000</ele>
                <time>2015-11-29T04:18:39Z</time>
            </trkpt>
            <trkpt lon="101.383981" lat="14.517411">
                <ele>376.490000</ele>
                <time>2015-11-29T04:19:14Z</time>
            </trkpt>
            <trkpt lon="101.385032" lat="14.517292">
                <ele>386.110000</ele>
                <time>2015-11-29T04:20:35Z</time>
            </trkpt>
            <trkpt lon="101.385357" lat="14.517444">
                <ele>384.660000</ele>
                <time>2015-11-29T04:20:49Z</time>
            </trkpt>
            <trkpt lon="101.385664" lat="14.517781">
                <ele>383.700000</ele>
                <time>2015-11-29T04:21:04Z</time>
            </trkpt>
            <trkpt lon="101.386370" lat="14.518550">
                <ele>378.420000</ele>
                <time>2015-11-29T04:21:35Z</time>
            </trkpt>
            <trkpt lon="101.387163" lat="14.518721">
                <ele>382.740000</ele>
                <time>2015-11-29T04:22:00Z</time>
            </trkpt>
            <trkpt lon="101.387496" lat="14.520517">
                <ele>385.150000</ele>
                <time>2015-11-29T04:22:51Z</time>
            </trkpt>
            <trkpt lon="101.387675" lat="14.521360">
                <ele>382.740000</ele>
                <time>2015-11-29T04:23:19Z</time>
            </trkpt>
            <trkpt lon="101.387833" lat="14.522106">
                <ele>376.970000</ele>
                <time>2015-11-29T04:23:45Z</time>
            </trkpt>
            <trkpt lon="101.387414" lat="14.523423">
                <ele>381.300000</ele>
                <time>2015-11-29T04:24:42Z</time>
            </trkpt>
            <trkpt lon="101.387011" lat="14.524330">
                <ele>381.300000</ele>
                <time>2015-11-29T04:25:13Z</time>
            </trkpt>
            <trkpt lon="101.387097" lat="14.524573">
                <ele>379.860000</ele>
                <time>2015-11-29T04:25:20Z</time>
            </trkpt>
            <trkpt lon="101.386852" lat="14.524881">
                <ele>381.780000</ele>
                <time>2015-11-29T04:25:39Z</time>
            </trkpt>
            <trkpt lon="101.386790" lat="14.525218">
                <ele>381.300000</ele>
                <time>2015-11-29T04:25:53Z</time>
            </trkpt>
            <trkpt lon="101.386816" lat="14.526215">
                <ele>368.320000</ele>
                <time>2015-11-29T04:26:27Z</time>
            </trkpt>
            <trkpt lon="101.388485" lat="14.526342">
                <ele>364.960000</ele>
                <time>2015-11-29T04:27:07Z</time>
            </trkpt>
            <trkpt lon="101.388545" lat="14.526596">
                <ele>364.960000</ele>
                <time>2015-11-29T04:27:14Z</time>
            </trkpt>
            <trkpt lon="101.388643" lat="14.527127">
                <ele>361.590000</ele>
                <time>2015-11-29T04:27:28Z</time>
            </trkpt>
            <trkpt lon="101.389339" lat="14.527161">
                <ele>364.480000</ele>
                <time>2015-11-29T04:28:33Z</time>
            </trkpt>
            <trkpt lon="101.389498" lat="14.525779">
                <ele>379.380000</ele>
                <time>2015-11-29T04:30:37Z</time>
            </trkpt>
            <trkpt lon="101.389599" lat="14.525126">
                <ele>376.970000</ele>
                <time>2015-11-29T04:32:11Z</time>
            </trkpt>
            <trkpt lon="101.389502" lat="14.524826">
                <ele>378.420000</ele>
                <time>2015-11-29T04:32:32Z</time>
            </trkpt>
            <trkpt lon="101.389290" lat="14.524175">
                <ele>373.130000</ele>
                <time>2015-11-29T04:33:05Z</time>
            </trkpt>
            <trkpt lon="101.389629" lat="14.523855">
                <ele>375.050000</ele>
                <time>2015-11-29T04:33:45Z</time>
            </trkpt>
            <trkpt lon="101.389631" lat="14.523598">
                <ele>376.010000</ele>
                <time>2015-11-29T04:34:03Z</time>
            </trkpt>
            <trkpt lon="101.389622" lat="14.523535">
                <ele>375.530000</ele>
                <time>2015-11-29T04:34:07Z</time>
            </trkpt>
            <trkpt lon="101.388549" lat="14.522794">
                <ele>370.240000</ele>
                <time>2015-11-29T04:35:04Z</time>
            </trkpt>
            <trkpt lon="101.388669" lat="14.522182">
                <ele>372.650000</ele>
                <time>2015-11-29T04:35:25Z</time>
            </trkpt>
            <trkpt lon="101.389216" lat="14.521425">
                <ele>376.010000</ele>
                <time>2015-11-29T04:35:56Z</time>
            </trkpt>
            <trkpt lon="101.389548" lat="14.520561">
                <ele>381.780000</ele>
                <time>2015-11-29T04:36:30Z</time>
            </trkpt>
            <trkpt lon="101.390145" lat="14.520354">
                <ele>383.220000</ele>
                <time>2015-11-29T04:36:53Z</time>
            </trkpt>
            <trkpt lon="101.390550" lat="14.521185">
                <ele>379.380000</ele>
                <time>2015-11-29T04:37:18Z</time>
            </trkpt>
            <trkpt lon="101.390744" lat="14.521138">
                <ele>378.900000</ele>
                <time>2015-11-29T04:37:25Z</time>
            </trkpt>
            <trkpt lon="101.391596" lat="14.520363">
                <ele>383.220000</ele>
                <time>2015-11-29T04:38:01Z</time>
            </trkpt>
            <trkpt lon="101.391628" lat="14.520362">
                <ele>383.220000</ele>
                <time>2015-11-29T04:38:02Z</time>
            </trkpt>
            <trkpt lon="101.392367" lat="14.521016">
                <ele>386.110000</ele>
                <time>2015-11-29T04:38:48Z</time>
            </trkpt>
            <trkpt lon="101.392525" lat="14.521019">
                <ele>387.550000</ele>
                <time>2015-11-29T04:38:59Z</time>
            </trkpt>
            <trkpt lon="101.392790" lat="14.520804">
                <ele>386.110000</ele>
                <time>2015-11-29T04:39:17Z</time>
            </trkpt>
            <trkpt lon="101.392245" lat="14.519854">
                <ele>384.660000</ele>
                <time>2015-11-29T04:40:25Z</time>
            </trkpt>
            <trkpt lon="101.392512" lat="14.519705">
                <ele>387.070000</ele>
                <time>2015-11-29T04:40:53Z</time>
            </trkpt>
            <trkpt lon="101.392848" lat="14.519491">
                <ele>385.150000</ele>
                <time>2015-11-29T04:41:18Z</time>
            </trkpt>
            <trkpt lon="101.393315" lat="14.519410">
                <ele>384.660000</ele>
                <time>2015-11-29T04:42:14Z</time>
            </trkpt>
            <trkpt lon="101.393842" lat="14.519768">
                <ele>382.260000</ele>
                <time>2015-11-29T04:42:33Z</time>
            </trkpt>
            <trkpt lon="101.394534" lat="14.519855">
                <ele>380.340000</ele>
                <time>2015-11-29T04:42:47Z</time>
            </trkpt>
            <trkpt lon="101.397956" lat="14.519573">
                <ele>375.530000</ele>
                <time>2015-11-29T04:43:49Z</time>
            </trkpt>
            <trkpt lon="101.397260" lat="14.522196">
                <ele>371.210000</ele>
                <time>2015-11-29T04:44:42Z</time>
            </trkpt>
            <trkpt lon="101.396994" lat="14.525030">
                <ele>376.490000</ele>
                <time>2015-11-29T04:45:54Z</time>
            </trkpt>
            <trkpt lon="101.396690" lat="14.525785">
                <ele>380.340000</ele>
                <time>2015-11-29T04:46:26Z</time>
            </trkpt>
            <trkpt lon="101.396464" lat="14.526179">
                <ele>381.300000</ele>
                <time>2015-11-29T04:46:43Z</time>
            </trkpt>
            <trkpt lon="101.395993" lat="14.527093">
                <ele>380.340000</ele>
                <time>2015-11-29T04:47:08Z</time>
            </trkpt>
            <trkpt lon="101.395466" lat="14.527898">
                <ele>376.490000</ele>
                <time>2015-11-29T04:47:22Z</time>
            </trkpt>
            <trkpt lon="101.394564" lat="14.528639">
                <ele>377.940000</ele>
                <time>2015-11-29T04:47:38Z</time>
            </trkpt>
            <trkpt lon="101.393943" lat="14.529320">
                <ele>378.420000</ele>
                <time>2015-11-29T04:47:53Z</time>
            </trkpt>
            <trkpt lon="101.393704" lat="14.529506">
                <ele>376.970000</ele>
                <time>2015-11-29T04:47:59Z</time>
            </trkpt>
            <trkpt lon="101.392827" lat="14.529843">
                <ele>374.570000</ele>
                <time>2015-11-29T04:48:15Z</time>
            </trkpt>
            <trkpt lon="101.391508" lat="14.529925">
                <ele>375.050000</ele>
                <time>2015-11-29T04:48:39Z</time>
            </trkpt>
            <trkpt lon="101.391414" lat="14.529982">
                <ele>374.570000</ele>
                <time>2015-11-29T04:48:41Z</time>
            </trkpt>
            <trkpt lon="101.390969" lat="14.530520">
                <ele>369.280000</ele>
                <time>2015-11-29T04:48:54Z</time>
            </trkpt>
            <trkpt lon="101.390822" lat="14.531720">
                <ele>370.730000</ele>
                <time>2015-11-29T04:49:25Z</time>
            </trkpt>
            <trkpt lon="101.389223" lat="14.531481">
                <ele>369.760000</ele>
                <time>2015-11-29T04:50:08Z</time>
            </trkpt>
            <trkpt lon="101.389115" lat="14.530695">
                <ele>371.210000</ele>
                <time>2015-11-29T04:50:29Z</time>
            </trkpt>
            <trkpt lon="101.387042" lat="14.530931">
                <ele>373.130000</ele>
                <time>2015-11-29T04:51:21Z</time>
            </trkpt>
            <trkpt lon="101.386655" lat="14.531053">
                <ele>371.690000</ele>
                <time>2015-11-29T04:51:32Z</time>
            </trkpt>
            <trkpt lon="101.386563" lat="14.534353">
                <ele>370.730000</ele>
                <time>2015-11-29T04:53:04Z</time>
            </trkpt>
            <trkpt lon="101.386452" lat="14.534650">
                <ele>371.690000</ele>
                <time>2015-11-29T04:53:15Z</time>
            </trkpt>
            <trkpt lon="101.381963" lat="14.534724">
                <ele>386.110000</ele>
                <time>2015-11-29T04:54:54Z</time>
            </trkpt>
            <trkpt lon="101.374778" lat="14.534722">
                <ele>388.030000</ele>
                <time>2015-11-29T04:57:07Z</time>
            </trkpt>
            <trkpt lon="101.372069" lat="14.534664">
                <ele>378.420000</ele>
                <time>2015-11-29T04:58:00Z</time>
            </trkpt>
            <trkpt lon="101.371747" lat="14.534748">
                <ele>377.940000</ele>
                <time>2015-11-29T04:58:07Z</time>
            </trkpt>
            <trkpt lon="101.369976" lat="14.534155">
                <ele>376.490000</ele>
                <time>2015-11-29T04:59:02Z</time>
            </trkpt>
            <trkpt lon="101.368198" lat="14.535699">
                <ele>377.450000</ele>
                <time>2015-11-29T04:59:57Z</time>
            </trkpt>
            <trkpt lon="101.366968" lat="14.537598">
                <ele>377.940000</ele>
                <time>2015-11-29T05:00:46Z</time>
            </trkpt>
            <trkpt lon="101.366186" lat="14.538199">
                <ele>377.940000</ele>
                <time>2015-11-29T05:01:05Z</time>
            </trkpt>
            <trkpt lon="101.364819" lat="14.538647">
                <ele>381.780000</ele>
                <time>2015-11-29T05:01:38Z</time>
            </trkpt>
            <trkpt lon="101.363471" lat="14.539310">
                <ele>385.150000</ele>
                <time>2015-11-29T05:02:17Z</time>
            </trkpt>
            <trkpt lon="101.362673" lat="14.539772">
                <ele>386.110000</ele>
                <time>2015-11-29T05:02:39Z</time>
            </trkpt>
            <trkpt lon="101.360087" lat="14.540383">
                <ele>384.180000</ele>
                <time>2015-11-29T05:03:32Z</time>
            </trkpt>
            <trkpt lon="101.358624" lat="14.540922">
                <ele>386.110000</ele>
                <time>2015-11-29T05:04:07Z</time>
            </trkpt>
            <trkpt lon="101.357795" lat="14.541779">
                <ele>388.510000</ele>
                <time>2015-11-29T05:04:43Z</time>
            </trkpt>
            <trkpt lon="101.356848" lat="14.542287">
                <ele>389.470000</ele>
                <time>2015-11-29T05:05:11Z</time>
            </trkpt>
            <trkpt lon="101.356914" lat="14.542947">
                <ele>393.800000</ele>
                <time>2015-11-29T05:06:25Z</time>
            </trkpt>
            <trkpt lon="101.357163" lat="14.543334">
                <ele>395.720000</ele>
                <time>2015-11-29T05:07:10Z</time>
            </trkpt>
            <trkpt lon="101.357538" lat="14.543301">
                <ele>392.360000</ele>
                <time>2015-11-29T05:07:52Z</time>
            </trkpt>
            <trkpt lon="101.358001" lat="14.543013">
                <ele>394.760000</ele>
                <time>2015-11-29T05:08:21Z</time>
            </trkpt>
            <trkpt lon="101.358054" lat="14.543018">
                <ele>397.160000</ele>
                <time>2015-11-29T05:08:27Z</time>
            </trkpt>
            <trkpt lon="101.358165" lat="14.543105">
                <ele>397.640000</ele>
                <time>2015-11-29T05:08:40Z</time>
            </trkpt>
            <trkpt lon="101.358179" lat="14.543236">
                <ele>396.200000</ele>
                <time>2015-11-29T05:09:10Z</time>
            </trkpt>
            <trkpt lon="101.357972" lat="14.543024">
                <ele>394.280000</ele>
                <time>2015-11-29T05:09:34Z</time>
            </trkpt>
            <trkpt lon="101.357361" lat="14.543337">
                <ele>394.280000</ele>
                <time>2015-11-29T05:10:10Z</time>
            </trkpt>
            <trkpt lon="101.357396" lat="14.543499">
                <ele>397.640000</ele>
                <time>2015-11-29T05:11:03Z</time>
            </trkpt>
            <trkpt lon="101.357320" lat="14.543412">
                <ele>396.680000</ele>
                <time>2015-11-29T05:11:16Z</time>
            </trkpt>
        </trkseg>
    </trk>
</gpx>